Terminal Aerodrome Forecast
Issued by NWS

Home | Current Version | Previous Version | Text Only | Print | Product List | Glossary On
Versions: 1 2 3 4 5 6 7 8 9 10 11 12 13
000
FTUS46 KHNX 242339
TAFMER
TAF
KMER 242339Z 2500/2524 30006KT P6SM BKN035
     FM250600 09003KT P6SM SKC
     FM250900 14002KT 4SM BR SKC
     FM251200 12002KT 1SM BR OVC005
     FM251900 15004KT 4SM HZ BKN015
     FM252100 15004KT P6SM BKN250=

USA.gov is the U.S. government's official web portal to all federal, state and local government web resources and services.